sensor_id;sensor_type;location;lat;lon;timestamp;P1;durP1;ratioP1;P2;durP2;ratioP2
15603;SDS011;7902;49.042;9.092;2023-02-28T00:00:34;9.10;;;1.50;;
15603;SDS011;7902;49.042;9.092;2023-02-28T00:03:01;10.10;;;1.33;;
15603;SDS011;7902;49.042;9.092;2023-02-28T00:05:27;7.33;;;1.80;;
15603;SDS011;7902;49.042;9.092;2023-02-28T00:07:54;7.27;;;1.40;;
15603;SDS011;7902;49.042;9.092;2023-02-28T00:10:22;9.40;;;1.73;;
15603;SDS011;7902;49.042;9.092;2023-02-28T00:12:50;8.37;;;1.57;;
15603;SDS011;7902;49.042;9.092;2023-02-28T00:15:17;10.63;;;1.40;;
15603;SDS011;7902;49.042;9.092;2023-02-28T00:17:43;7.40;;;1.63;;
15603;SDS011;7902;49.042;9.092;2023-02-28T00:20:10;10.90;;;1.87;;
15603;SDS011;7902;49.042;9.092;2023-02-28T00:22:38;9.97;;;2.30;;
15603;SDS011;7902;49.042;9.092;2023-02-28T00:25:05;9.90;;;2.10;;
15603;SDS011;7902;49.042;9.092;2023-02-28T00:27:34;7.70;;;1.57;;
15603;SDS011;7902;49.042;9.092;2023-02-28T00:30:00;7.17;;;1.40;;
15603;SDS011;7902;49.042;9.092;2023-02-28T00:32:27;7.63;;;1.60;;
15603;SDS011;7902;49.042;9.092;2023-02-28T00:34:52;8.13;;;1.40;;
15603;SDS011;7902;49.042;9.092;2023-02-28T00:37:18;8.37;;;1.77;;
15603;SDS011;7902;49.042;9.092;2023-02-28T00:39:44;8.67;;;1.60;;
15603;SDS011;7902;49.042;9.092;2023-02-28T00:42:10;8.00;;;1.90;;
15603;SDS011;7902;49.042;9.092;2023-02-28T00:44:36;7.77;;;1.50;;
15603;SDS011;7902;49.042;9.092;2023-02-28T00:47:02;9.07;;;1.53;;
15603;SDS011;7902;49.042;9.092;2023-02-28T00:49:28;7.87;;;1.60;;
15603;SDS011;7902;49.042;9.092;2023-02-28T00:51:54;7.70;;;1.50;;
15603;SDS011;7902;49.042;9.092;2023-02-28T00:54:20;7.70;;;1.30;;
15603;SDS011;7902;49.042;9.092;2023-02-28T00:56:47;8.80;;;1.77;;
15603;SDS011;7902;49.042;9.092;2023-02-28T00:59:13;7.93;;;1.60;;
15603;SDS011;7902;49.042;9.092;2023-02-28T01:01:41;10.23;;;1.63;;
15603;SDS011;7902;49.042;9.092;2023-02-28T01:04:07;14.00;;;1.47;;
15603;SDS011;7902;49.042;9.092;2023-02-28T01:06:33;8.10;;;1.60;;
15603;SDS011;7902;49.042;9.092;2023-02-28T01:08:59;8.27;;;1.70;;
15603;SDS011;7902;49.042;9.092;2023-02-28T01:11:25;8.23;;;1.57;;
15603;SDS011;7902;49.042;9.092;2023-02-28T01:13:51;7.90;;;1.80;;
15603;SDS011;7902;49.042;9.092;2023-02-28T01:16:17;7.50;;;1.60;;
15603;SDS011;7902;49.042;9.092;2023-02-28T01:18:43;8.17;;;1.50;;
15603;SDS011;7902;49.042;9.092;2023-02-28T01:21:11;8.83;;;2.00;;
15603;SDS011;7902;49.042;9.092;2023-02-28T01:23:39;7.50;;;1.60;;
15603;SDS011;7902;49.042;9.092;2023-02-28T01:26:06;7.63;;;1.77;;
15603;SDS011;7902;49.042;9.092;2023-02-28T01:28:33;7.87;;;1.57;;
15603;SDS011;7902;49.042;9.092;2023-02-28T01:30:59;9.50;;;1.83;;
15603;SDS011;7902;49.042;9.092;2023-02-28T01:33:25;8.43;;;1.93;;
15603;SDS011;7902;49.042;9.092;2023-02-28T01:35:58;7.53;;;1.60;;
15603;SDS011;7902;49.042;9.092;2023-02-28T01:38:25;8.90;;;1.50;;
15603;SDS011;7902;49.042;9.092;2023-02-28T01:40:51;7.20;;;1.27;;
15603;SDS011;7902;49.042;9.092;2023-02-28T01:43:22;9.20;;;2.07;;
15603;SDS011;7902;49.042;9.092;2023-02-28T01:45:51;8.07;;;1.80;;
15603;SDS011;7902;49.042;9.092;2023-02-28T01:48:18;8.97;;;2.07;;
15603;SDS011;7902;49.042;9.092;2023-02-28T01:50:51;7.43;;;1.50;;
15603;SDS011;7902;49.042;9.092;2023-02-28T01:53:21;7.87;;;1.73;;
15603;SDS011;7902;49.042;9.092;2023-02-28T01:55:52;8.00;;;1.70;;
15603;SDS011;7902;49.042;9.092;2023-02-28T01:58:19;7.70;;;1.63;;
15603;SDS011;7902;49.042;9.092;2023-02-28T02:00:45;10.10;;;2.57;;
15603;SDS011;7902;49.042;9.092;2023-02-28T02:03:12;7.63;;;2.00;;
15603;SDS011;7902;49.042;9.092;2023-02-28T02:05:40;9.10;;;2.00;;
15603;SDS011;7902;49.042;9.092;2023-02-28T02:08:11;7.80;;;1.80;;
15603;SDS011;7902;49.042;9.092;2023-02-28T02:10:41;8.10;;;2.00;;
15603;SDS011;7902;49.042;9.092;2023-02-28T02:13:16;8.30;;;1.93;;
15603;SDS011;7902;49.042;9.092;2023-02-28T02:16:04;13.67;;;3.77;;
15603;SDS011;7902;49.042;9.092;2023-02-28T02:18:47;12.50;;;2.00;;
15603;SDS011;7902;49.042;9.092;2023-02-28T02:21:30;9.10;;;2.03;;
15603;SDS011;7902;49.042;9.092;2023-02-28T02:36:07;10.70;;;2.33;;
15603;SDS011;7902;49.042;9.092;2023-02-28T02:38:47;8.50;;;1.97;;
15603;SDS011;7902;49.042;9.092;2023-02-28T02:41:24;9.17;;;2.20;;
15603;SDS011;7902;49.042;9.092;2023-02-28T02:46:37;8.60;;;1.80;;
15603;SDS011;7902;49.042;9.092;2023-02-28T02:49:20;8.17;;;1.93;;
15603;SDS011;7902;49.042;9.092;2023-02-28T02:51:49;7.80;;;1.80;;
15603;SDS011;7902;49.042;9.092;2023-02-28T02:54:19;8.43;;;1.97;;
15603;SDS011;7902;49.042;9.092;2023-02-28T02:56:48;8.60;;;2.20;;
15603;SDS011;7902;49.042;9.092;2023-02-28T02:59:16;8.20;;;1.63;;
15603;SDS011;7902;49.042;9.092;2023-02-28T03:01:50;8.63;;;1.70;;
15603;SDS011;7902;49.042;9.092;2023-02-28T03:04:21;9.10;;;2.00;;
15603;SDS011;7902;49.042;9.092;2023-02-28T03:06:50;8.07;;;1.77;;
15603;SDS011;7902;49.042;9.092;2023-02-28T03:09:24;7.83;;;2.10;;
15603;SDS011;7902;49.042;9.092;2023-02-28T03:11:50;7.90;;;1.87;;
15603;SDS011;7902;49.042;9.092;2023-02-28T03:17:20;10.27;;;1.77;;
15603;SDS011;7902;49.042;9.092;2023-02-28T03:20:01;9.27;;;2.10;;
15603;SDS011;7902;49.042;9.092;2023-02-28T03:28:23;8.57;;;2.13;;
15603;SDS011;7902;49.042;9.092;2023-02-28T03:31:00;8.60;;;2.43;;
15603;SDS011;7902;49.042;9.092;2023-02-28T03:33:36;11.50;;;2.30;;
15603;SDS011;7902;49.042;9.092;2023-02-28T03:36:08;7.97;;;2.17;;
15603;SDS011;7902;49.042;9.092;2023-02-28T03:41:17;7.73;;;2.10;;
15603;SDS011;7902;49.042;9.092;2023-02-28T03:43:53;9.10;;;2.40;;
15603;SDS011;7902;49.042;9.092;2023-02-28T03:46:23;7.67;;;2.00;;
15603;SDS011;7902;49.042;9.092;2023-02-28T03:49:14;9.70;;;2.50;;
15603;SDS011;7902;49.042;9.092;2023-02-28T03:51:41;8.63;;;2.17;;
15603;SDS011;7902;49.042;9.092;2023-02-28T03:54:12;9.03;;;2.10;;
15603;SDS011;7902;49.042;9.092;2023-02-28T03:56:56;9.80;;;2.10;;
15603;SDS011;7902;49.042;9.092;2023-02-28T04:00:10;9.03;;;2.47;;
15603;SDS011;7902;49.042;9.092;2023-02-28T04:02:19;9.50;;;1.97;;
15603;SDS011;7902;49.042;9.092;2023-02-28T04:04:45;9.23;;;2.00;;
15603;SDS011;7902;49.042;9.092;2023-02-28T04:07:13;10.73;;;2.53;;
15603;SDS011;7902;49.042;9.092;2023-02-28T04:09:39;9.13;;;2.70;;
15603;SDS011;7902;49.042;9.092;2023-02-28T04:12:06;10.97;;;2.57;;
15603;SDS011;7902;49.042;9.092;2023-02-28T04:14:32;11.30;;;2.40;;
15603;SDS011;7902;49.042;9.092;2023-02-28T04:16:58;8.40;;;2.20;;
15603;SDS011;7902;49.042;9.092;2023-02-28T04:19:24;8.37;;;1.90;;
15603;SDS011;7902;49.042;9.092;2023-02-28T04:21:51;9.67;;;2.43;;
15603;SDS011;7902;49.042;9.092;2023-02-28T04:24:22;8.53;;;2.20;;
15603;SDS011;7902;49.042;9.092;2023-02-28T04:26:50;10.13;;;2.10;;
15603;SDS011;7902;49.042;9.092;2023-02-28T04:29:19;8.50;;;2.37;;
15603;SDS011;7902;49.042;9.092;2023-02-28T04:31:48;9.67;;;2.60;;
15603;SDS011;7902;49.042;9.092;2023-02-28T04:34:14;15.70;;;2.73;;
15603;SDS011;7902;49.042;9.092;2023-02-28T04:36:40;8.33;;;2.40;;
15603;SDS011;7902;49.042;9.092;2023-02-28T04:39:06;9.60;;;2.47;;
15603;SDS011;7902;49.042;9.092;2023-02-28T04:41:32;9.50;;;2.63;;
15603;SDS011;7902;49.042;9.092;2023-02-28T04:43:58;9.80;;;2.97;;
15603;SDS011;7902;49.042;9.092;2023-02-28T04:46:24;10.70;;;2.60;;
15603;SDS011;7902;49.042;9.092;2023-02-28T04:48:50;8.17;;;1.83;;
15603;SDS011;7902;49.042;9.092;2023-02-28T04:51:17;9.60;;;2.53;;
15603;SDS011;7902;49.042;9.092;2023-02-28T04:53:44;11.10;;;2.50;;
15603;SDS011;7902;49.042;9.092;2023-02-28T04:56:11;12.93;;;3.20;;
15603;SDS011;7902;49.042;9.092;2023-02-28T04:58:38;11.60;;;2.50;;
15603;SDS011;7902;49.042;9.092;2023-02-28T05:01:06;9.70;;;3.10;;
15603;SDS011;7902;49.042;9.092;2023-02-28T05:03:44;10.60;;;2.40;;
15603;SDS011;7902;49.042;9.092;2023-02-28T05:06:10;9.27;;;2.70;;
15603;SDS011;7902;49.042;9.092;2023-02-28T05:08:37;10.10;;;2.57;;
15603;SDS011;7902;49.042;9.092;2023-02-28T05:11:05;11.40;;;2.60;;
15603;SDS011;7902;49.042;9.092;2023-02-28T05:13:34;9.07;;;2.17;;
15603;SDS011;7902;49.042;9.092;2023-02-28T05:16:01;8.00;;;2.07;;
15603;SDS011;7902;49.042;9.092;2023-02-28T05:18:27;9.17;;;2.50;;
15603;SDS011;7902;49.042;9.092;2023-02-28T05:20:53;15.73;;;2.83;;
15603;SDS011;7902;49.042;9.092;2023-02-28T05:23:19;9.20;;;2.47;;
15603;SDS011;7902;49.042;9.092;2023-02-28T05:25:48;9.10;;;2.40;;
15603;SDS011;7902;49.042;9.092;2023-02-28T05:28:14;11.70;;;2.70;;
15603;SDS011;7902;49.042;9.092;2023-02-28T05:30:40;11.90;;;2.60;;
15603;SDS011;7902;49.042;9.092;2023-02-28T05:33:06;13.67;;;3.37;;
15603;SDS011;7902;49.042;9.092;2023-02-28T05:35:31;10.90;;;2.80;;
15603;SDS011;7902;49.042;9.092;2023-02-28T05:37:57;9.33;;;2.53;;
15603;SDS011;7902;49.042;9.092;2023-02-28T05:40:23;9.43;;;2.30;;
15603;SDS011;7902;49.042;9.092;2023-02-28T05:42:50;9.73;;;3.00;;
15603;SDS011;7902;49.042;9.092;2023-02-28T05:45:16;9.40;;;2.90;;
15603;SDS011;7902;49.042;9.092;2023-02-28T05:47:42;9.93;;;2.97;;
15603;SDS011;7902;49.042;9.092;2023-02-28T05:50:08;8.00;;;2.23;;
15603;SDS011;7902;49.042;9.092;2023-02-28T05:52:36;9.80;;;2.50;;
15603;SDS011;7902;49.042;9.092;2023-02-28T05:55:03;11.43;;;2.63;;
15603;SDS011;7902;49.042;9.092;2023-02-28T05:57:29;10.07;;;2.30;;
15603;SDS011;7902;49.042;9.092;2023-02-28T05:59:55;10.80;;;3.37;;
15603;SDS011;7902;49.042;9.092;2023-02-28T06:02:21;9.47;;;2.67;;
15603;SDS011;7902;49.042;9.092;2023-02-28T06:04:47;10.90;;;2.47;;
15603;SDS011;7902;49.042;9.092;2023-02-28T06:07:12;11.47;;;3.10;;
15603;SDS011;7902;49.042;9.092;2023-02-28T06:09:38;11.60;;;2.70;;
15603;SDS011;7902;49.042;9.092;2023-02-28T06:12:05;13.33;;;3.20;;
15603;SDS011;7902;49.042;9.092;2023-02-28T06:14:33;9.00;;;2.20;;
15603;SDS011;7902;49.042;9.092;2023-02-28T06:16:59;8.93;;;2.37;;
15603;SDS011;7902;49.042;9.092;2023-02-28T06:19:26;10.13;;;2.73;;
15603;SDS011;7902;49.042;9.092;2023-02-28T06:21:52;10.67;;;3.27;;
15603;SDS011;7902;49.042;9.092;2023-02-28T06:24:20;9.60;;;2.57;;
15603;SDS011;7902;49.042;9.092;2023-02-28T06:26:47;13.57;;;3.67;;
15603;SDS011;7902;49.042;9.092;2023-02-28T06:29:14;8.60;;;2.50;;
15603;SDS011;7902;49.042;9.092;2023-02-28T06:31:44;13.50;;;2.93;;
15603;SDS011;7902;49.042;9.092;2023-02-28T06:34:13;10.57;;;2.60;;
15603;SDS011;7902;49.042;9.092;2023-02-28T06:36:40;11.20;;;3.30;;
15603;SDS011;7902;49.042;9.092;2023-02-28T06:39:07;10.50;;;3.33;;
15603;SDS011;7902;49.042;9.092;2023-02-28T06:41:33;11.63;;;2.93;;
15603;SDS011;7902;49.042;9.092;2023-02-28T06:44:04;10.40;;;2.80;;
15603;SDS011;7902;49.042;9.092;2023-02-28T06:46:31;13.40;;;3.50;;
15603;SDS011;7902;49.042;9.092;2023-02-28T06:48:57;14.93;;;3.00;;
15603;SDS011;7902;49.042;9.092;2023-02-28T06:51:23;9.67;;;2.83;;
15603;SDS011;7902;49.042;9.092;2023-02-28T06:53:50;10.00;;;2.60;;
15603;SDS011;7902;49.042;9.092;2023-02-28T06:56:16;11.00;;;3.17;;
15603;SDS011;7902;49.042;9.092;2023-02-28T06:58:47;12.23;;;2.97;;
15603;SDS011;7902;49.042;9.092;2023-02-28T07:01:14;13.17;;;3.50;;
15603;SDS011;7902;49.042;9.092;2023-02-28T07:03:40;11.63;;;3.43;;
15603;SDS011;7902;49.042;9.092;2023-02-28T07:06:06;11.20;;;3.13;;
15603;SDS011;7902;49.042;9.092;2023-02-28T07:08:33;24.33;;;3.43;;
15603;SDS011;7902;49.042;9.092;2023-02-28T07:10:59;18.20;;;3.73;;
15603;SDS011;7902;49.042;9.092;2023-02-28T07:13:25;32.77;;;3.73;;
15603;SDS011;7902;49.042;9.092;2023-02-28T07:15:55;9.40;;;2.83;;
15603;SDS011;7902;49.042;9.092;2023-02-28T07:18:22;10.97;;;3.43;;
15603;SDS011;7902;49.042;9.092;2023-02-28T07:20:49;10.90;;;2.97;;
15603;SDS011;7902;49.042;9.092;2023-02-28T07:23:14;11.30;;;3.47;;
15603;SDS011;7902;49.042;9.092;2023-02-28T07:25:40;11.13;;;2.80;;
15603;SDS011;7902;49.042;9.092;2023-02-28T07:28:06;10.53;;;3.20;;
15603;SDS011;7902;49.042;9.092;2023-02-28T07:30:32;18.80;;;3.47;;
15603;SDS011;7902;49.042;9.092;2023-02-28T07:32:58;14.47;;;4.67;;
15603;SDS011;7902;49.042;9.092;2023-02-28T07:35:24;13.20;;;4.70;;
15603;SDS011;7902;49.042;9.092;2023-02-28T07:37:50;11.60;;;4.00;;
15603;SDS011;7902;49.042;9.092;2023-02-28T07:40:16;14.20;;;5.30;;
15603;SDS011;7902;49.042;9.092;2023-02-28T07:42:43;17.00;;;6.03;;
15603;SDS011;7902;49.042;9.092;2023-02-28T07:45:10;14.73;;;4.87;;
15603;SDS011;7902;49.042;9.092;2023-02-28T07:47:40;15.53;;;5.23;;
15603;SDS011;7902;49.042;9.092;2023-02-28T07:50:08;14.60;;;4.50;;
15603;SDS011;7902;49.042;9.092;2023-02-28T07:52:36;14.83;;;4.60;;
15603;SDS011;7902;49.042;9.092;2023-02-28T07:55:02;18.93;;;4.60;;
15603;SDS011;7902;49.042;9.092;2023-02-28T07:57:30;17.20;;;4.97;;
15603;SDS011;7902;49.042;9.092;2023-02-28T07:59:56;19.67;;;4.90;;
15603;SDS011;7902;49.042;9.092;2023-02-28T08:02:22;22.03;;;6.40;;
15603;SDS011;7902;49.042;9.092;2023-02-28T08:04:48;16.67;;;6.03;;
15603;SDS011;7902;49.042;9.092;2023-02-28T08:07:15;16.40;;;6.27;;
15603;SDS011;7902;49.042;9.092;2023-02-28T08:09:42;26.63;;;9.13;;
15603;SDS011;7902;49.042;9.092;2023-02-28T08:12:09;19.00;;;6.30;;
15603;SDS011;7902;49.042;9.092;2023-02-28T08:14:36;22.37;;;8.23;;
15603;SDS011;7902;49.042;9.092;2023-02-28T08:17:03;12.80;;;5.03;;
15603;SDS011;7902;49.042;9.092;2023-02-28T08:19:29;11.97;;;4.07;;
15603;SDS011;7902;49.042;9.092;2023-02-28T08:21:56;14.67;;;4.23;;
15603;SDS011;7902;49.042;9.092;2023-02-28T08:24:22;13.57;;;3.67;;
15603;SDS011;7902;49.042;9.092;2023-02-28T08:26:49;16.13;;;4.37;;
15603;SDS011;7902;49.042;9.092;2023-02-28T08:29:15;10.80;;;3.90;;
15603;SDS011;7902;49.042;9.092;2023-02-28T08:31:41;10.17;;;3.27;;
15603;SDS011;7902;49.042;9.092;2023-02-28T08:34:07;13.10;;;3.63;;
15603;SDS011;7902;49.042;9.092;2023-02-28T08:36:34;12.43;;;3.40;;
15603;SDS011;7902;49.042;9.092;2023-02-28T08:39:00;13.90;;;3.83;;
15603;SDS011;7902;49.042;9.092;2023-02-28T08:41:26;15.97;;;4.57;;
15603;SDS011;7902;49.042;9.092;2023-02-28T08:43:52;13.30;;;4.20;;
15603;SDS011;7902;49.042;9.092;2023-02-28T08:46:19;18.63;;;5.60;;
15603;SDS011;7902;49.042;9.092;2023-02-28T08:48:45;13.30;;;4.67;;
15603;SDS011;7902;49.042;9.092;2023-02-28T08:51:13;12.73;;;4.67;;
15603;SDS011;7902;49.042;9.092;2023-02-28T08:53:41;12.40;;;3.80;;
15603;SDS011;7902;49.042;9.092;2023-02-28T08:56:08;13.03;;;4.00;;
15603;SDS011;7902;49.042;9.092;2023-02-28T08:58:36;12.47;;;4.27;;
15603;SDS011;7902;49.042;9.092;2023-02-28T09:01:13;15.47;;;5.40;;
15603;SDS011;7902;49.042;9.092;2023-02-28T09:03:41;12.93;;;3.80;;
15603;SDS011;7902;49.042;9.092;2023-02-28T09:06:08;11.43;;;4.00;;
15603;SDS011;7902;49.042;9.092;2023-02-28T09:08:35;15.17;;;4.27;;
15603;SDS011;7902;49.042;9.092;2023-02-28T09:11:01;12.50;;;4.00;;
15603;SDS011;7902;49.042;9.092;2023-02-28T09:13:28;20.30;;;4.10;;
15603;SDS011;7902;49.042;9.092;2023-02-28T09:15:57;11.67;;;3.97;;
15603;SDS011;7902;49.042;9.092;2023-02-28T09:18:24;15.00;;;4.10;;
15603;SDS011;7902;49.042;9.092;2023-02-28T09:20:51;24.13;;;3.63;;
15603;SDS011;7902;49.042;9.092;2023-02-28T09:23:18;12.70;;;3.80;;
15603;SDS011;7902;49.042;9.092;2023-02-28T09:25:45;18.50;;;4.30;;
15603;SDS011;7902;49.042;9.092;2023-02-28T09:28:16;13.57;;;4.47;;
15603;SDS011;7902;49.042;9.092;2023-02-28T09:30:44;13.27;;;3.77;;
15603;SDS011;7902;49.042;9.092;2023-02-28T09:33:10;12.27;;;3.53;;
15603;SDS011;7902;49.042;9.092;2023-02-28T09:35:37;12.90;;;3.77;;
15603;SDS011;7902;49.042;9.092;2023-02-28T09:38:03;11.10;;;3.33;;
15603;SDS011;7902;49.042;9.092;2023-02-28T09:40:30;18.67;;;4.50;;
15603;SDS011;7902;49.042;9.092;2023-02-28T09:42:57;13.40;;;4.10;;
15603;SDS011;7902;49.042;9.092;2023-02-28T09:45:47;12.77;;;4.60;;
15603;SDS011;7902;49.042;9.092;2023-02-28T09:48:20;13.03;;;3.63;;
15603;SDS011;7902;49.042;9.092;2023-02-28T09:50:50;11.60;;;3.63;;
15603;SDS011;7902;49.042;9.092;2023-02-28T09:53:29;23.90;;;4.10;;
15603;SDS011;7902;49.042;9.092;2023-02-28T09:56:03;15.10;;;4.70;;
15603;SDS011;7902;49.042;9.092;2023-02-28T09:58:47;14.53;;;5.17;;
15603;SDS011;7902;49.042;9.092;2023-02-28T10:07:07;17.23;;;7.33;;
15603;SDS011;7902;49.042;9.092;2023-02-28T10:09:49;20.13;;;5.30;;
15603;SDS011;7902;49.042;9.092;2023-02-28T10:12:18;20.30;;;5.20;;
15603;SDS011;7902;49.042;9.092;2023-02-28T10:14:46;13.93;;;5.43;;
15603;SDS011;7902;49.042;9.092;2023-02-28T10:17:16;18.07;;;5.10;;
15603;SDS011;7902;49.042;9.092;2023-02-28T10:25:23;14.33;;;4.63;;
15603;SDS011;7902;49.042;9.092;2023-02-28T10:27:53;15.07;;;4.90;;
15603;SDS011;7902;49.042;9.092;2023-02-28T10:30:23;18.80;;;5.07;;
15603;SDS011;7902;49.042;9.092;2023-02-28T10:32:50;13.27;;;4.57;;
15603;SDS011;7902;49.042;9.092;2023-02-28T10:35:21;14.00;;;4.80;;
15603;SDS011;7902;49.042;9.092;2023-02-28T10:37:50;23.13;;;5.93;;
15603;SDS011;7902;49.042;9.092;2023-02-28T10:40:32;15.07;;;4.70;;
15603;SDS011;7902;49.042;9.092;2023-02-28T10:43:05;13.57;;;4.47;;
15603;SDS011;7902;49.042;9.092;2023-02-28T10:45:56;19.00;;;4.63;;
15603;SDS011;7902;49.042;9.092;2023-02-28T10:48:27;13.63;;;4.77;;
15603;SDS011;7902;49.042;9.092;2023-02-28T10:51:00;19.30;;;4.00;;
15603;SDS011;7902;49.042;9.092;2023-02-28T10:53:37;14.33;;;4.60;;
15603;SDS011;7902;49.042;9.092;2023-02-28T11:01:14;15.50;;;4.17;;
15603;SDS011;7902;49.042;9.092;2023-02-28T11:03:42;15.93;;;4.47;;
15603;SDS011;7902;49.042;9.092;2023-02-28T11:06:29;20.37;;;4.57;;
15603;SDS011;7902;49.042;9.092;2023-02-28T11:08:56;18.03;;;5.50;;
15603;SDS011;7902;49.042;9.092;2023-02-28T11:11:26;15.20;;;4.83;;
15603;SDS011;7902;49.042;9.092;2023-02-28T11:13:58;26.83;;;4.47;;
15603;SDS011;7902;49.042;9.092;2023-02-28T11:16:33;14.80;;;3.97;;
15603;SDS011;7902;49.042;9.092;2023-02-28T11:19:01;12.87;;;4.53;;
15603;SDS011;7902;49.042;9.092;2023-02-28T11:21:30;13.60;;;4.30;;
15603;SDS011;7902;49.042;9.092;2023-02-28T11:24:42;18.83;;;5.70;;
15603;SDS011;7902;49.042;9.092;2023-02-28T11:26:51;16.63;;;5.13;;
15603;SDS011;7902;49.042;9.092;2023-02-28T11:29:19;14.33;;;4.30;;
15603;SDS011;7902;49.042;9.092;2023-02-28T11:34:35;15.93;;;5.20;;
15603;SDS011;7902;49.042;9.092;2023-02-28T11:37:03;18.40;;;5.20;;
15603;SDS011;7902;49.042;9.092;2023-02-28T11:39:31;15.10;;;4.70;;
15603;SDS011;7902;49.042;9.092;2023-02-28T11:44:58;16.43;;;5.50;;
15603;SDS011;7902;49.042;9.092;2023-02-28T11:47:31;14.43;;;4.73;;
15603;SDS011;7902;49.042;9.092;2023-02-28T11:50:23;17.93;;;5.43;;
15603;SDS011;7902;49.042;9.092;2023-02-28T11:53:18;17.20;;;4.90;;
15603;SDS011;7902;49.042;9.092;2023-02-28T12:07:16;16.27;;;4.47;;
15603;SDS011;7902;49.042;9.092;2023-02-28T12:15:48;24.10;;;4.90;;
15603;SDS011;7902;49.042;9.092;2023-02-28T12:18:27;13.83;;;4.33;;
15603;SDS011;7902;49.042;9.092;2023-02-28T12:28:59;13.40;;;4.27;;
15603;SDS011;7902;49.042;9.092;2023-02-28T12:31:46;14.90;;;4.57;;
15603;SDS011;7902;49.042;9.092;2023-02-28T12:34:19;14.27;;;4.07;;
15603;SDS011;7902;49.042;9.092;2023-02-28T12:36:49;14.93;;;4.00;;
15603;SDS011;7902;49.042;9.092;2023-02-28T12:39:20;15.10;;;4.57;;
15603;SDS011;7902;49.042;9.092;2023-02-28T12:41:56;19.70;;;5.77;;
15603;SDS011;7902;49.042;9.092;2023-02-28T12:44:35;15.43;;;4.30;;
15603;SDS011;7902;49.042;9.092;2023-02-28T12:47:09;13.27;;;3.90;;
15603;SDS011;7902;49.042;9.092;2023-02-28T12:49:53;17.90;;;5.07;;
15603;SDS011;7902;49.042;9.092;2023-02-28T12:52:26;25.73;;;4.80;;
15603;SDS011;7902;49.042;9.092;2023-02-28T12:55:19;13.70;;;4.57;;
15603;SDS011;7902;49.042;9.092;2023-02-28T13:00:32;15.47;;;4.77;;
15603;SDS011;7902;49.042;9.092;2023-02-28T13:06:13;15.40;;;5.50;;
15603;SDS011;7902;49.042;9.092;2023-02-28T13:11:23;17.00;;;5.13;;
15603;SDS011;7902;49.042;9.092;2023-02-28T13:13:56;14.73;;;4.67;;
15603;SDS011;7902;49.042;9.092;2023-02-28T13:16:24;14.30;;;4.57;;
15603;SDS011;7902;49.042;9.092;2023-02-28T13:18:50;16.17;;;5.50;;
15603;SDS011;7902;49.042;9.092;2023-02-28T13:23:58;15.47;;;4.87;;
15603;SDS011;7902;49.042;9.092;2023-02-28T13:28:59;15.00;;;4.97;;
15603;SDS011;7902;49.042;9.092;2023-02-28T13:31:27;16.90;;;5.37;;
15603;SDS011;7902;49.042;9.092;2023-02-28T13:36:26;17.63;;;5.50;;
15603;SDS011;7902;49.042;9.092;2023-02-28T13:39:02;16.87;;;5.10;;
15603;SDS011;7902;49.042;9.092;2023-02-28T13:41:48;18.97;;;5.43;;
15603;SDS011;7902;49.042;9.092;2023-02-28T13:44:18;15.83;;;5.10;;
15603;SDS011;7902;49.042;9.092;2023-02-28T13:52:10;14.70;;;5.10;;
15603;SDS011;7902;49.042;9.092;2023-02-28T14:03:29;19.07;;;5.90;;
15603;SDS011;7902;49.042;9.092;2023-02-28T14:06:09;15.93;;;5.07;;
15603;SDS011;7902;49.042;9.092;2023-02-28T14:11:36;14.87;;;5.20;;
15603;SDS011;7902;49.042;9.092;2023-02-28T14:14:05;37.60;;;10.17;;
15603;SDS011;7902;49.042;9.092;2023-02-28T14:16:46;18.23;;;5.43;;
15603;SDS011;7902;49.042;9.092;2023-02-28T14:19:22;30.30;;;9.00;;
15603;SDS011;7902;49.042;9.092;2023-02-28T14:25:10;51.63;;;14.33;;
15603;SDS011;7902;49.042;9.092;2023-02-28T14:27:56;17.33;;;5.73;;
15603;SDS011;7902;49.042;9.092;2023-02-28T14:33:27;18.90;;;5.77;;
15603;SDS011;7902;49.042;9.092;2023-02-28T14:36:05;17.07;;;5.80;;
15603;SDS011;7902;49.042;9.092;2023-02-28T14:38:42;15.70;;;5.00;;
15603;SDS011;7902;49.042;9.092;2023-02-28T14:41:14;18.03;;;6.53;;
15603;SDS011;7902;49.042;9.092;2023-02-28T14:43:47;21.47;;;7.40;;
15603;SDS011;7902;49.042;9.092;2023-02-28T14:46:15;16.90;;;6.17;;
15603;SDS011;7902;49.042;9.092;2023-02-28T14:48:45;14.80;;;4.63;;
15603;SDS011;7902;49.042;9.092;2023-02-28T14:51:13;16.27;;;5.30;;
15603;SDS011;7902;49.042;9.092;2023-02-28T14:53:44;18.17;;;5.37;;
15603;SDS011;7902;49.042;9.092;2023-02-28T14:56:22;18.90;;;6.40;;
15603;SDS011;7902;49.042;9.092;2023-02-28T14:58:51;15.77;;;5.50;;
15603;SDS011;7902;49.042;9.092;2023-02-28T15:01:19;27.30;;;6.57;;
15603;SDS011;7902;49.042;9.092;2023-02-28T15:03:48;19.00;;;6.23;;
15603;SDS011;7902;49.042;9.092;2023-02-28T15:06:22;22.97;;;6.27;;
15603;SDS011;7902;49.042;9.092;2023-02-28T15:09:01;17.70;;;5.30;;
15603;SDS011;7902;49.042;9.092;2023-02-28T15:11:33;19.13;;;6.07;;
15603;SDS011;7902;49.042;9.092;2023-02-28T15:14:00;24.63;;;7.50;;
15603;SDS011;7902;49.042;9.092;2023-02-28T15:18:53;23.53;;;6.23;;
15603;SDS011;7902;49.042;9.092;2023-02-28T15:21:26;23.63;;;7.90;;
15603;SDS011;7902;49.042;9.092;2023-02-28T15:23:59;19.70;;;6.33;;
15603;SDS011;7902;49.042;9.092;2023-02-28T15:26:52;16.60;;;6.10;;
15603;SDS011;7902;49.042;9.092;2023-02-28T15:29:22;20.67;;;5.53;;
15603;SDS011;7902;49.042;9.092;2023-02-28T15:31:51;18.63;;;5.43;;
15603;SDS011;7902;49.042;9.092;2023-02-28T15:34:23;18.90;;;6.07;;
15603;SDS011;7902;49.042;9.092;2023-02-28T15:37:06;17.50;;;6.10;;
15603;SDS011;7902;49.042;9.092;2023-02-28T15:39:50;17.47;;;5.60;;
15603;SDS011;7902;49.042;9.092;2023-02-28T15:42:18;16.30;;;5.20;;
15603;SDS011;7902;49.042;9.092;2023-02-28T15:44:46;15.20;;;5.07;;
15603;SDS011;7902;49.042;9.092;2023-02-28T15:47:22;16.33;;;5.67;;
15603;SDS011;7902;49.042;9.092;2023-02-28T15:50:00;26.63;;;7.03;;
15603;SDS011;7902;49.042;9.092;2023-02-28T15:55:10;17.27;;;5.70;;
15603;SDS011;7902;49.042;9.092;2023-02-28T15:57:48;40.50;;;7.10;;
15603;SDS011;7902;49.042;9.092;2023-02-28T16:00:22;15.23;;;5.33;;
15603;SDS011;7902;49.042;9.092;2023-02-28T16:02:49;13.87;;;4.60;;
15603;SDS011;7902;49.042;9.092;2023-02-28T16:07:54;27.80;;;10.37;;
15603;SDS011;7902;49.042;9.092;2023-02-28T16:10:21;22.00;;;8.30;;
15603;SDS011;7902;49.042;9.092;2023-02-28T16:12:52;19.50;;;6.37;;
15603;SDS011;7902;49.042;9.092;2023-02-28T16:15:20;18.17;;;5.30;;
15603;SDS011;7902;49.042;9.092;2023-02-28T16:17:48;19.43;;;5.57;;
15603;SDS011;7902;49.042;9.092;2023-02-28T16:20:19;16.27;;;5.17;;
15603;SDS011;7902;49.042;9.092;2023-02-28T16:22:49;16.90;;;5.60;;
15603;SDS011;7902;49.042;9.092;2023-02-28T16:25:17;19.97;;;6.00;;
15603;SDS011;7902;49.042;9.092;2023-02-28T16:27:49;21.57;;;5.97;;
15603;SDS011;7902;49.042;9.092;2023-02-28T16:30:22;17.03;;;5.50;;
15603;SDS011;7902;49.042;9.092;2023-02-28T16:32:50;21.73;;;5.93;;
15603;SDS011;7902;49.042;9.092;2023-02-28T16:35:18;19.30;;;5.70;;
15603;SDS011;7902;49.042;9.092;2023-02-28T16:37:45;18.93;;;6.20;;
15603;SDS011;7902;49.042;9.092;2023-02-28T16:40:15;17.90;;;6.20;;
15603;SDS011;7902;49.042;9.092;2023-02-28T16:42:43;28.27;;;6.00;;
15603;SDS011;7902;49.042;9.092;2023-02-28T16:45:17;18.73;;;6.30;;
15603;SDS011;7902;49.042;9.092;2023-02-28T16:47:46;18.33;;;5.37;;
15603;SDS011;7902;49.042;9.092;2023-02-28T16:50:23;15.40;;;5.60;;
15603;SDS011;7902;49.042;9.092;2023-02-28T16:52:50;18.60;;;6.53;;
15603;SDS011;7902;49.042;9.092;2023-02-28T16:55:17;17.67;;;5.93;;
15603;SDS011;7902;49.042;9.092;2023-02-28T16:57:44;17.90;;;5.73;;
15603;SDS011;7902;49.042;9.092;2023-02-28T17:00:32;20.90;;;7.10;;
15603;SDS011;7902;49.042;9.092;2023-02-28T17:02:58;21.23;;;7.20;;
15603;SDS011;7902;49.042;9.092;2023-02-28T17:05:25;23.07;;;6.93;;
15603;SDS011;7902;49.042;9.092;2023-02-28T17:07:52;19.00;;;7.03;;
15603;SDS011;7902;49.042;9.092;2023-02-28T17:10:19;21.03;;;7.00;;